Airfield :
LOGIN :

Register | Disclaimer

   EN    FR    IT 

 










Legend :    VFR   Marginal VFR   IFR   Intensive IFR   Very Intensive IFR
Visi :
Ceiling :
>= 8 km
>= 3000ft
5 to 8 km
1000 to 3000 ft
1500m to 5 km
500 to 1000 ft
800 to 1500m
200 to 500 ft
< 800m
< 200 ft
Symbols :   Thunderstorms  Fog  Heavy snow  Heavy precipitations  Wind > 20 kt
SIGMETs :     Misc.  Thunderstorms  Icing  Turbulence  Mountain Waves  Volcanic Ashes






- Airport Elevation : 36 ft
- IATA code : RIX


EVRA - Riga

CURRENT METAR :
  • 221320Z 32011KT 9999 SCT013CB OVC046 03/M00 Q1012 R36/290195 TEMPO 4000 SHGR

EXPIRED METARs :
  • 221250Z 33014G27KT 270V350 9999 -SHRA SCT019CB SCT025 OVC030 03/M01 Q1011 RESHGS R36/290195 TEMPO 4000 SHGR
  • 221220Z 32013KT 250V350 9999 FEW033CB BKN042 04/M02 Q1011 R36/290195 TEMPO 4000 SHRAGR
  • 221150Z 32014G24KT 270V350 9999 FEW029CB BKN034 OVC049 04/M03 Q1011 R36/290195 NOSIG
  • 221120Z 33014G24KT 290V360 9999 FEW030CB BKN036 04/M02 Q1010 R36/290195 NOSIG
  • 221050Z 32014G25KT 270V350 9999 FEW030CB BKN036 04/M02 Q1010 R36/290195 NOSIG

TAF TAF EVRA
Valid from the 22 at 12:00 until the 23 at 12:00 UTC


221100Z 2212/2312 32013KT 9999 BKN025
TEMPO 2212/2221 33020G30KT 4000 SHRAGR
TEMPO 2221/2224 33016G28KT
TEMPO 2300/2306 3000 SHSN BKN015CB BKN025
PROB40
TEMPO 2300/2306 0700 +SHSN VV002
BECMG 2309/2311 24007KT



MET'MAP, your aeronautical weather chart ! - Copyright ORBIFLY December 2007 - Disclaimer

ORBIFLY MET'MAP TEAM :

Programming & Development : Alexandra Zaïnal
Concept & original design : Baudouin d'Aumeries
Assistance for programming : Marc-Olivier Méhu
Technical & hardware support : Manuel Goepfert

Contact : metmap@orbifly.com




SOURCES & CREDITS :

   NOAA